createdAt,value
2022-11-09T00:01:41.932Z,6.63
2022-11-09T00:04:08.927Z,6.50
2022-11-09T00:06:35.658Z,6.10
2022-11-09T00:09:07.764Z,6.15
2022-11-09T00:11:34.688Z,7.63
2022-11-09T00:14:01.017Z,5.30
2022-11-09T00:16:27.355Z,6.70
2022-11-09T00:18:53.817Z,5.43
2022-11-09T00:21:24.267Z,7.00
2022-11-09T00:23:51.131Z,7.43
2022-11-09T00:26:18.522Z,5.78
2022-11-09T00:28:44.984Z,6.72
2022-11-09T00:31:13.265Z,6.72
2022-11-09T00:33:39.994Z,8.50
2022-11-09T00:36:08.419Z,13.52
2022-11-09T00:38:35.254Z,10.35
2022-11-09T00:41:04.980Z,10.27
2022-11-09T00:43:31.769Z,9.65
2022-11-09T00:45:58.180Z,9.55
2022-11-09T00:48:24.816Z,13.13
2022-11-09T00:50:55.384Z,7.85
2022-11-09T00:53:22.986Z,8.68
2022-11-09T00:55:56.920Z,12.05
2022-11-09T00:58:24.231Z,8.95
2022-11-09T01:00:50.982Z,7.82
2022-11-09T01:03:17.787Z,6.90
2022-11-09T01:05:44.404Z,11.77
2022-11-09T01:08:11.047Z,9.73
2022-11-09T01:10:41.380Z,10.00
2022-11-09T01:13:07.889Z,8.48
2022-11-09T01:15:34.272Z,11.15
2022-11-09T01:18:00.691Z,8.18
2022-11-09T01:20:27.058Z,9.60
2022-11-09T01:22:55.062Z,8.88
2022-11-09T01:25:21.551Z,9.57
2022-11-09T01:27:47.950Z,8.07
2022-11-09T01:30:14.352Z,10.25
2022-11-09T01:32:40.762Z,12.45
2022-11-09T01:35:07.446Z,8.48
2022-11-09T01:37:33.823Z,7.97
2022-11-09T01:40:00.207Z,10.48
2022-11-09T01:42:26.603Z,8.40
2022-11-09T01:45:17.907Z,8.13
2022-11-09T01:47:54.046Z,7.65
2022-11-09T01:50:27.778Z,7.68
2022-11-09T01:52:54.268Z,10.45
2022-11-09T01:55:23.229Z,8.20
2022-11-09T01:58:00.156Z,8.13
2022-11-09T02:00:26.583Z,9.25
2022-11-09T02:03:12.399Z,7.13
2022-11-09T02:05:40.648Z,6.75
2022-11-09T02:08:07.471Z,7.95
2022-11-09T02:10:39.223Z,8.48
2022-11-09T02:13:06.052Z,8.90
2022-11-09T02:15:32.542Z,9.02
2022-11-09T02:17:59.029Z,9.45
2022-11-09T02:20:25.792Z,8.50
2022-11-09T02:22:52.215Z,10.80
2022-11-09T02:25:18.817Z,8.95
2022-11-09T02:27:45.679Z,10.65
2022-11-09T02:30:13.896Z,11.15
2022-11-09T02:32:40.652Z,7.85
2022-11-09T02:35:07.299Z,8.60
2022-11-09T02:37:44.900Z,7.60
2022-11-09T02:40:14.743Z,10.52
2022-11-09T02:42:41.086Z,8.38
2022-11-09T02:45:08.173Z,9.20
2022-11-09T02:47:34.564Z,11.52
2022-11-09T02:50:00.947Z,11.80
2022-11-09T02:52:27.292Z,10.43
2022-11-09T02:54:53.712Z,10.95
2022-11-09T02:57:20.101Z,12.55
2022-11-09T02:59:46.470Z,14.00
2022-11-09T03:02:12.873Z,11.82
2022-11-09T03:04:39.255Z,14.10
2022-11-09T03:07:05.691Z,12.25
2022-11-09T03:09:32.110Z,11.23
2022-11-09T03:11:58.533Z,12.80
2022-11-09T03:14:24.947Z,12.23
2022-11-09T03:16:51.311Z,10.90
2022-11-09T03:19:17.684Z,15.30
2022-11-09T03:21:44.007Z,12.77
2022-11-09T03:24:10.312Z,10.50
2022-11-09T03:26:36.757Z,11.27
2022-11-09T03:29:03.083Z,12.85
2022-11-09T03:31:29.478Z,12.68
2022-11-09T03:33:55.832Z,14.07
2022-11-09T03:36:22.242Z,14.43
2022-11-09T03:38:48.667Z,16.30
2022-11-09T03:41:15.037Z,15.57
2022-11-09T03:43:41.403Z,18.05
2022-11-09T03:46:07.737Z,16.38
2022-11-09T03:48:34.122Z,18.92
2022-11-09T03:51:00.452Z,22.30
2022-11-09T03:53:26.850Z,18.73
2022-11-09T03:55:53.239Z,17.75
2022-11-09T03:58:19.705Z,16.77
2022-11-09T04:00:46.048Z,19.88
2022-11-09T04:03:12.590Z,17.17
2022-11-09T04:05:38.978Z,18.00
2022-11-09T04:08:05.381Z,19.42
2022-11-09T04:10:33.169Z,13.98
2022-11-09T04:12:59.595Z,14.13
2022-11-09T04:15:26.005Z,14.98
2022-11-09T04:17:59.945Z,14.52
2022-11-09T04:20:28.129Z,14.65
2022-11-09T04:22:59.160Z,17.30
2022-11-09T04:25:26.056Z,13.25
2022-11-09T04:27:58.972Z,14.52
2022-11-09T04:30:29.549Z,13.90
2022-11-09T04:33:00.085Z,14.32
2022-11-09T04:35:27.306Z,15.15
2022-11-09T04:37:58.389Z,15.60
2022-11-09T04:40:26.277Z,17.35
2022-11-09T04:42:52.747Z,15.88
2022-11-09T04:45:19.856Z,15.38
2022-11-09T04:47:46.243Z,14.68
2022-11-09T04:50:12.978Z,13.57
2022-11-09T04:52:39.342Z,15.80
2022-11-09T04:55:06.381Z,15.13
2022-11-09T04:57:32.756Z,14.02
2022-11-09T04:59:59.167Z,13.73
2022-11-09T05:02:25.554Z,13.65
2022-11-09T05:04:51.909Z,15.10
2022-11-09T05:07:18.364Z,15.45
2022-11-09T05:09:44.809Z,15.00
2022-11-09T05:12:11.302Z,15.63
2022-11-09T05:14:37.941Z,17.70
2022-11-09T05:17:04.353Z,14.95
2022-11-09T05:19:30.742Z,17.08
2022-11-09T05:22:17.017Z,15.48
2022-11-09T05:24:43.358Z,15.52
2022-11-09T05:27:09.692Z,15.48
2022-11-09T05:29:36.055Z,15.15
2022-11-09T05:32:02.780Z,16.20
2022-11-09T05:34:29.126Z,17.95
2022-11-09T05:37:00.736Z,16.23
2022-11-09T05:39:29.647Z,16.95
2022-11-09T05:41:55.947Z,18.15
2022-11-09T05:44:22.273Z,15.70
2022-11-09T05:46:48.759Z,20.98
2022-11-09T05:49:15.118Z,16.02
2022-11-09T05:51:41.470Z,16.52
2022-11-09T05:54:08.702Z,17.33
2022-11-09T05:56:35.045Z,18.00
2022-11-09T05:59:01.396Z,15.68
2022-11-09T06:01:27.791Z,17.95
2022-11-09T06:03:54.576Z,17.55
2022-11-09T06:06:20.915Z,20.10
2022-11-09T06:08:47.767Z,19.58
2022-11-09T06:11:18.466Z,18.92
2022-11-09T06:13:49.570Z,18.58
2022-11-09T06:16:16.115Z,17.83
2022-11-09T06:18:42.552Z,19.13
2022-11-09T06:21:09.735Z,19.08
2022-11-09T06:23:36.328Z,19.80
2022-11-09T06:26:09.036Z,19.63
2022-11-09T06:28:36.327Z,20.58
2022-11-09T06:31:04.461Z,20.35
2022-11-09T06:33:31.537Z,20.42
2022-11-09T06:35:58.348Z,22.00
2022-11-09T06:38:28.522Z,21.60
2022-11-09T06:40:56.768Z,20.90
2022-11-09T06:43:23.982Z,21.48
2022-11-09T06:45:50.753Z,21.05
2022-11-09T06:48:17.414Z,20.58
2022-11-09T06:50:43.826Z,21.38
2022-11-09T06:53:11.755Z,21.65
2022-11-09T06:55:38.403Z,21.45
2022-11-09T06:58:10.126Z,22.13
2022-11-09T07:00:37.263Z,21.80
2022-11-09T07:03:04.122Z,22.27
2022-11-09T07:05:30.463Z,23.95
2022-11-09T07:07:57.417Z,24.08
2022-11-09T07:10:24.297Z,22.65
2022-11-09T07:12:52.228Z,23.98
2022-11-09T07:15:18.771Z,25.63
2022-11-09T07:17:45.121Z,24.73
2022-11-09T07:20:11.823Z,26.35
2022-11-09T07:22:39.744Z,25.55
2022-11-09T07:25:07.373Z,24.33
2022-11-09T07:27:34.008Z,24.92
2022-11-09T07:30:00.444Z,26.20
2022-11-09T07:32:46.979Z,26.52
2022-11-09T07:35:13.180Z,26.70
2022-11-09T07:37:39.529Z,24.50
2022-11-09T07:40:06.537Z,27.75
2022-11-09T07:42:33.021Z,25.15
2022-11-09T07:44:59.336Z,26.95
2022-11-09T07:47:25.728Z,26.35
2022-11-09T07:49:52.331Z,29.83
2022-11-09T07:52:18.743Z,26.10
2022-11-09T07:54:48.276Z,24.95
2022-11-09T07:57:17.329Z,25.88
2022-11-09T07:59:43.629Z,25.23
2022-11-09T08:02:10.345Z,24.95
2022-11-09T08:04:37.316Z,26.50
2022-11-09T08:07:03.793Z,27.40
2022-11-09T08:09:30.203Z,26.30
2022-11-09T08:11:56.632Z,25.55
2022-11-09T08:14:22.970Z,25.02
2022-11-09T08:16:49.309Z,23.92
2022-11-09T08:19:15.680Z,25.80
2022-11-09T08:21:42.187Z,24.60
2022-11-09T08:24:08.581Z,22.67
2022-11-09T08:26:35.000Z,23.10
2022-11-09T08:29:01.310Z,23.85
2022-11-09T08:31:27.681Z,24.85
2022-11-09T08:33:54.065Z,22.65
2022-11-09T08:36:20.449Z,22.20
2022-11-09T08:38:46.814Z,23.38
2022-11-09T08:41:14.285Z,23.48
2022-11-09T08:43:41.067Z,23.35
2022-11-09T08:46:07.533Z,22.90
2022-11-09T08:48:33.928Z,20.85
2022-11-09T08:51:00.613Z,19.33
2022-11-09T08:53:28.450Z,17.17
2022-11-09T08:55:54.847Z,18.98
2022-11-09T08:58:21.785Z,15.43
2022-11-09T09:00:48.495Z,13.90
2022-11-09T09:03:14.906Z,11.75
2022-11-09T09:05:41.253Z,16.13
2022-11-09T09:08:07.952Z,11.48
2022-11-09T09:10:35.465Z,12.25
2022-11-09T09:13:03.703Z,11.40
2022-11-09T09:15:30.756Z,9.40
2022-11-09T09:17:59.991Z,10.38
2022-11-09T09:20:27.009Z,8.80
2022-11-09T09:22:53.550Z,11.02
2022-11-09T09:25:20.182Z,8.13
2022-11-09T09:27:46.601Z,6.63
2022-11-09T09:30:13.719Z,8.60
2022-11-09T09:32:40.109Z,7.43
2022-11-09T09:35:06.770Z,7.15
2022-11-09T09:37:33.182Z,6.22
2022-11-09T09:39:59.604Z,6.95
2022-11-09T09:42:33.935Z,6.88
2022-11-09T09:45:04.803Z,6.78
2022-11-09T09:47:52.408Z,9.02
2022-11-09T09:50:22.053Z,6.05
2022-11-09T09:55:53.488Z,5.43
2022-11-09T09:58:28.060Z,5.43
2022-11-09T10:01:21.829Z,5.22
2022-11-09T10:03:48.938Z,5.10
2022-11-09T10:06:21.378Z,5.20
2022-11-09T10:09:16.414Z,5.50
2022-11-09T10:11:48.881Z,4.68
2022-11-09T10:14:21.055Z,5.45
2022-11-09T10:17:02.602Z,4.50
2022-11-09T10:19:46.772Z,9.27
2022-11-09T10:22:18.452Z,3.38
2022-11-09T10:27:51.529Z,4.22
2022-11-09T10:30:20.585Z,3.05
2022-11-09T10:32:51.437Z,3.67
2022-11-09T10:35:22.328Z,5.35
2022-11-09T10:37:52.082Z,4.45
2022-11-09T10:40:28.974Z,2.60
2022-11-09T10:42:58.511Z,3.70
2022-11-09T10:45:36.209Z,6.72
2022-11-09T10:48:03.652Z,5.50
2022-11-09T10:50:42.597Z,2.35
2022-11-09T10:53:21.971Z,4.35
2022-11-09T10:55:55.745Z,3.03
2022-11-09T10:58:27.372Z,3.20
2022-11-09T11:01:18.387Z,4.00
2022-11-09T11:03:45.740Z,3.28
2022-11-09T11:06:18.011Z,4.00
2022-11-09T11:08:49.519Z,2.47
2022-11-09T11:11:37.739Z,4.00
2022-11-09T11:14:28.539Z,2.17
2022-11-09T11:16:56.012Z,2.90
2022-11-09T11:19:30.242Z,3.20
2022-11-09T11:24:55.117Z,2.15
2022-11-09T11:27:32.221Z,3.78
2022-11-09T11:30:37.466Z,3.47
2022-11-09T11:35:45.185Z,5.75
2022-11-09T11:38:35.975Z,3.70
2022-11-09T11:41:20.949Z,4.30
2022-11-09T11:44:16.396Z,2.40
2022-11-09T11:46:46.542Z,4.90
2022-11-09T11:49:41.376Z,5.63
2022-11-09T11:55:02.419Z,2.53
2022-11-09T11:57:41.649Z,3.13
2022-11-09T12:00:16.107Z,6.30
2022-11-09T12:03:14.152Z,5.50
2022-11-09T12:05:51.345Z,2.85
2022-11-09T12:08:39.225Z,4.80
2022-11-09T12:11:35.419Z,3.17
2022-11-09T12:14:26.956Z,4.20
2022-11-09T12:17:17.619Z,2.25
2022-11-09T12:19:54.429Z,2.05
2022-11-09T12:22:30.113Z,4.22
2022-11-09T12:25:01.760Z,3.40
2022-11-09T12:27:41.246Z,1.73
2022-11-09T12:30:15.042Z,6.82
2022-11-09T12:33:01.242Z,4.25
2022-11-09T12:35:38.004Z,3.65
2022-11-09T12:38:24.196Z,2.42
2022-11-09T12:41:17.137Z,2.85
2022-11-09T12:44:12.020Z,2.85
2022-11-09T12:46:46.520Z,3.35
2022-11-09T12:49:30.585Z,6.03
2022-11-09T12:51:59.116Z,2.60
2022-11-09T12:54:26.046Z,13.93
2022-11-09T12:57:14.224Z,6.25
2022-11-09T12:59:48.689Z,4.93
2022-11-09T13:02:53.611Z,3.15
2022-11-09T13:05:34.087Z,5.53
2022-11-09T13:08:01.806Z,4.82
2022-11-09T13:10:31.331Z,6.88
2022-11-09T13:13:14.840Z,7.95
2022-11-09T13:16:07.034Z,6.63
2022-11-09T13:18:37.698Z,3.28
2022-11-09T13:21:21.978Z,3.63
2022-11-09T13:24:01.376Z,4.28
2022-11-09T13:26:32.264Z,3.95
2022-11-09T13:29:21.156Z,2.35
2022-11-09T13:32:10.419Z,4.38
2022-11-09T13:34:46.962Z,4.88
2022-11-09T13:37:35.164Z,6.00
2022-11-09T13:40:22.093Z,3.58
2022-11-09T13:43:01.097Z,4.88
2022-11-09T13:45:32.480Z,3.40
2022-11-09T13:47:58.927Z,2.92
2022-11-09T13:50:30.342Z,7.05
2022-11-09T13:52:58.684Z,8.55
2022-11-09T13:55:24.890Z,4.72
2022-11-09T13:57:53.461Z,3.88
2022-11-09T14:00:24.613Z,5.32
2022-11-09T14:03:00.651Z,6.97
2022-11-09T14:05:32.546Z,4.63
2022-11-09T14:08:01.767Z,7.80
2022-11-09T14:10:46.740Z,3.67
2022-11-09T14:13:59.072Z,5.18
2022-11-09T14:16:42.516Z,5.25
2022-11-09T14:19:32.884Z,4.78
2022-11-09T14:22:00.357Z,9.00
2022-11-09T14:24:32.354Z,7.32
2022-11-09T14:27:10.690Z,2.72
2022-11-09T14:29:47.452Z,5.10
2022-11-09T14:32:30.447Z,5.55
2022-11-09T14:35:28.670Z,4.55
2022-11-09T14:37:56.131Z,5.10
2022-11-09T14:40:26.802Z,9.48
2022-11-09T14:43:16.364Z,19.38
2022-11-09T14:45:51.583Z,8.77
2022-11-09T14:48:19.940Z,6.70
2022-11-09T14:50:47.198Z,5.07
2022-11-09T14:53:22.353Z,8.15
2022-11-09T14:55:49.565Z,4.22
2022-11-09T14:58:16.261Z,4.30
2022-11-09T15:00:45.987Z,3.50
2022-11-09T15:03:29.437Z,5.28
2022-11-09T15:06:11.377Z,3.75
2022-11-09T15:08:40.267Z,6.22
2022-11-09T15:11:06.748Z,6.10
2022-11-09T15:13:36.323Z,7.97
2022-11-09T15:16:02.890Z,5.25
2022-11-09T15:18:34.033Z,5.63
2022-11-09T15:21:14.515Z,4.07
2022-11-09T15:23:47.198Z,9.07
2022-11-09T15:26:36.233Z,4.90
2022-11-09T15:29:23.255Z,6.25
2022-11-09T15:32:20.164Z,4.30
2022-11-09T15:34:55.379Z,2.67
2022-11-09T15:37:31.180Z,4.07
2022-11-09T15:39:58.822Z,4.75
2022-11-09T15:42:26.314Z,4.13
2022-11-09T15:44:54.561Z,7.85
2022-11-09T15:47:31.729Z,6.22
2022-11-09T15:50:00.051Z,4.72
2022-11-09T15:52:26.728Z,4.80
2022-11-09T15:54:53.062Z,6.38
2022-11-09T15:57:21.658Z,6.32
2022-11-09T15:59:49.981Z,8.20
2022-11-09T16:02:16.609Z,5.20
2022-11-09T16:04:43.046Z,6.78
2022-11-09T16:07:13.401Z,4.82
2022-11-09T16:09:40.620Z,5.20
2022-11-09T16:12:07.340Z,6.13
2022-11-09T16:14:34.353Z,4.57
2022-11-09T16:17:00.710Z,5.95
2022-11-09T16:19:27.063Z,8.88
2022-11-09T16:21:53.514Z,4.43
2022-11-09T16:24:20.530Z,3.80
2022-11-09T16:26:46.988Z,5.05
2022-11-09T16:29:13.781Z,3.13
2022-11-09T16:31:51.284Z,7.53
2022-11-09T16:34:18.394Z,7.72
2022-11-09T16:36:50.828Z,5.88
2022-11-09T16:39:18.934Z,6.97
2022-11-09T16:41:47.728Z,5.15
2022-11-09T16:44:16.011Z,5.15
2022-11-09T16:46:43.648Z,3.45
2022-11-09T16:49:09.974Z,4.97
2022-11-09T16:51:36.357Z,4.20
2022-11-09T16:54:02.707Z,6.32
2022-11-09T16:56:29.046Z,3.75
2022-11-09T16:58:55.390Z,6.13
2022-11-09T17:01:23.594Z,4.72
2022-11-09T17:03:50.301Z,5.50
2022-11-09T17:06:16.718Z,2.72
2022-11-09T17:08:44.107Z,3.08
2022-11-09T17:11:12.300Z,4.72
2022-11-09T17:13:39.379Z,7.55
2022-11-09T17:16:09.102Z,3.80
2022-11-09T17:18:37.492Z,3.30
2022-11-09T17:21:08.717Z,6.32
2022-11-09T17:23:35.146Z,8.57
2022-11-09T17:26:03.304Z,5.75
2022-11-09T17:28:30.241Z,6.78
2022-11-09T17:30:56.704Z,5.78
2022-11-09T17:33:24.653Z,6.50
2022-11-09T17:36:01.919Z,6.93
2022-11-09T17:38:29.752Z,5.72
2022-11-09T17:41:06.807Z,4.65
2022-11-09T17:43:34.653Z,5.80
2022-11-09T17:46:06.031Z,6.53
2022-11-09T17:48:36.058Z,8.82
2022-11-09T17:51:02.984Z,7.03
2022-11-09T17:53:30.220Z,5.30
2022-11-09T17:55:56.583Z,3.92
2022-11-09T17:58:23.605Z,3.83
2022-11-09T18:00:50.192Z,4.72
2022-11-09T18:03:16.961Z,4.32
2022-11-09T18:05:44.069Z,4.68
2022-11-09T18:08:11.925Z,3.45
2022-11-09T18:10:39.815Z,6.18
2022-11-09T18:13:06.174Z,3.63
2022-11-09T18:15:33.235Z,7.03
2022-11-09T18:17:59.569Z,5.93
2022-11-09T18:20:25.960Z,4.53
2022-11-09T18:22:53.434Z,4.22
2022-11-09T18:25:20.458Z,4.95
2022-11-09T18:27:49.971Z,8.18
2022-11-09T18:30:16.829Z,5.80
2022-11-09T18:32:43.403Z,4.47
2022-11-09T18:35:09.805Z,3.10
2022-11-09T18:37:37.107Z,3.80
2022-11-09T18:40:05.273Z,8.18
2022-11-09T18:42:31.909Z,4.47
2022-11-09T18:44:58.324Z,5.00
2022-11-09T18:47:25.401Z,5.65
2022-11-09T18:49:52.400Z,7.20
2022-11-09T18:52:18.801Z,4.32
2022-11-09T18:54:45.140Z,7.85
2022-11-09T18:57:15.903Z,4.38
2022-11-09T18:59:45.011Z,6.60
2022-11-09T19:02:12.588Z,5.60
2022-11-09T19:04:39.827Z,3.10
2022-11-09T19:07:07.544Z,4.15
2022-11-09T19:09:38.548Z,4.10
2022-11-09T19:12:09.449Z,6.13
2022-11-09T19:14:44.272Z,5.57
2022-11-09T19:17:13.304Z,5.25
2022-11-09T19:19:40.434Z,3.53
2022-11-09T19:22:14.813Z,6.47
2022-11-09T19:24:41.517Z,6.10
2022-11-09T19:27:09.444Z,8.02
2022-11-09T19:29:35.756Z,8.55
2022-11-09T19:32:02.064Z,3.75
2022-11-09T19:34:29.165Z,5.28
2022-11-09T19:36:55.514Z,6.43
2022-11-09T19:39:22.087Z,3.72
2022-11-09T19:41:48.451Z,8.77
2022-11-09T19:44:14.933Z,4.88
2022-11-09T19:46:41.365Z,6.15
2022-11-09T19:49:09.136Z,6.30
2022-11-09T19:51:35.736Z,6.93
2022-11-09T19:54:03.900Z,6.35
2022-11-09T19:56:31.444Z,4.63
2022-11-09T19:59:00.044Z,4.13
2022-11-09T20:01:26.651Z,5.90
2022-11-09T20:03:58.077Z,3.28
2022-11-09T20:06:25.412Z,4.32
2022-11-09T20:08:52.314Z,4.43
2022-11-09T20:11:38.696Z,3.55
2022-11-09T20:14:05.894Z,6.38
2022-11-09T20:16:33.250Z,4.90
2022-11-09T20:19:00.721Z,5.68
2022-11-09T20:21:27.250Z,6.25
2022-11-09T20:23:53.561Z,6.03
2022-11-09T20:26:19.907Z,5.07
2022-11-09T20:28:46.233Z,2.50
2022-11-09T20:31:15.145Z,3.78
2022-11-09T20:33:42.181Z,2.67
2022-11-09T20:36:08.754Z,4.40
2022-11-09T20:38:35.151Z,6.55
2022-11-09T20:41:03.741Z,4.05
2022-11-09T20:43:30.550Z,3.63
2022-11-09T20:45:57.973Z,6.55
2022-11-09T20:48:52.177Z,5.93
2022-11-09T20:51:12.165Z,6.22
2022-11-09T20:53:39.037Z,4.65
2022-11-09T20:56:05.472Z,5.18
2022-11-09T20:58:31.798Z,4.28
2022-11-09T21:01:14.652Z,4.30
2022-11-09T21:03:41.338Z,5.40
2022-11-09T21:06:08.861Z,6.47
2022-11-09T21:08:35.608Z,6.30
2022-11-09T21:11:03.634Z,12.60
2022-11-09T21:13:30.441Z,5.93
2022-11-09T21:16:04.370Z,7.03
2022-11-09T21:18:30.942Z,4.88
2022-11-09T21:21:03.606Z,5.25
2022-11-09T21:23:48.624Z,6.00
2022-11-09T21:26:33.651Z,4.57
2022-11-09T21:29:18.370Z,8.57
2022-11-09T21:31:44.761Z,6.35
2022-11-09T21:34:11.075Z,7.18
2022-11-09T21:36:37.411Z,6.15
2022-11-09T21:39:03.782Z,6.38
2022-11-09T21:41:39.003Z,10.70
2022-11-09T21:44:07.842Z,7.35
2022-11-09T21:46:35.737Z,5.72
2022-11-09T21:49:02.698Z,8.32
2022-11-09T21:51:29.029Z,9.27
2022-11-09T21:53:55.374Z,6.63
2022-11-09T21:56:22.077Z,4.50
2022-11-09T21:58:49.318Z,10.10
2022-11-09T22:01:17.844Z,8.55
2022-11-09T22:03:45.036Z,7.60
2022-11-09T22:06:13.481Z,6.20
2022-11-09T22:08:40.446Z,5.40
2022-11-09T22:11:08.024Z,4.63
2022-11-09T22:13:53.517Z,4.25
2022-11-09T22:16:20.793Z,5.68
2022-11-09T22:19:06.398Z,4.18
2022-11-09T22:21:32.884Z,4.03
2022-11-09T22:24:00.231Z,6.90
2022-11-09T22:26:27.993Z,7.53
2022-11-09T22:28:58.204Z,6.15
2022-11-09T22:31:25.257Z,6.78
2022-11-09T22:33:52.085Z,7.75
2022-11-09T22:36:18.857Z,7.03
2022-11-09T22:38:46.152Z,5.10
2022-11-09T22:41:14.471Z,7.35
2022-11-09T22:43:42.554Z,7.80
2022-11-09T22:46:13.982Z,6.13
2022-11-09T22:48:41.233Z,8.07
2022-11-09T22:51:08.312Z,10.10
2022-11-09T22:53:34.883Z,5.60
2022-11-09T22:56:02.654Z,8.48
2022-11-09T22:58:29.365Z,7.93
2022-11-09T23:01:02.660Z,4.53
2022-11-09T23:03:29.055Z,6.77
2022-11-09T23:06:01.275Z,6.78
2022-11-09T23:08:27.710Z,6.28
2022-11-09T23:10:55.410Z,7.43
2022-11-09T23:13:21.939Z,5.47
2022-11-09T23:16:00.492Z,6.28
2022-11-09T23:18:46.391Z,6.90
2022-11-09T23:21:14.077Z,8.60
2022-11-09T23:23:40.498Z,7.60
2022-11-09T23:26:07.577Z,6.07
2022-11-09T23:28:34.556Z,6.10
2022-11-09T23:31:02.185Z,6.80
2022-11-09T23:33:28.995Z,9.48
2022-11-09T23:35:56.120Z,5.93
2022-11-09T23:38:22.969Z,5.30
2022-11-09T23:40:49.681Z,8.30
2022-11-09T23:43:16.676Z,5.07
2022-11-09T23:45:43.318Z,6.10
2022-11-09T23:48:15.251Z,7.95
2022-11-09T23:50:41.850Z,5.50
2022-11-09T23:53:09.047Z,6.53
2022-11-09T23:55:35.446Z,4.93
2022-11-09T23:58:02.360Z,5.80
